sensor_id;sensor_type;location;lat;lon;timestamp;pressure;altitude;pressure_sealevel;temperature;humidity
8523;BME280;4299;42.202;24.736;2023-02-17T00:01:48;100638.81;;;-0.48;100.00
8523;BME280;4299;42.202;24.736;2023-02-17T00:04:14;100647.56;;;-0.36;100.00
8523;BME280;4299;42.202;24.736;2023-02-17T00:06:42;100638.03;;;-0.34;100.00
8523;BME280;4299;42.202;24.736;2023-02-17T00:09:09;100626.75;;;-0.33;100.00
8523;BME280;4299;42.202;24.736;2023-02-17T00:11:36;100628.53;;;-0.29;100.00
8523;BME280;4299;42.202;24.736;2023-02-17T00:14:02;100630.22;;;-0.34;100.00
8523;BME280;4299;42.202;24.736;2023-02-17T00:16:29;100624.94;;;-0.47;100.00
8523;BME280;4299;42.202;24.736;2023-02-17T00:18:58;100628.38;;;-0.51;100.00
8523;BME280;4299;42.202;24.736;2023-02-17T00:21:26;100629.16;;;-0.64;100.00
8523;BME280;4299;42.202;24.736;2023-02-17T00:23:56;100617.88;;;-0.63;100.00
8523;BME280;4299;42.202;24.736;2023-02-17T00:26:23;100617.88;;;-0.63;100.00
8523;BME280;4299;42.202;24.736;2023-02-17T00:28:49;100610.94;;;-0.61;100.00
8523;BME280;4299;42.202;24.736;2023-02-17T00:31:19;100617.06;;;-0.54;100.00
8523;BME280;4299;42.202;24.736;2023-02-17T00:33:46;100612.75;;;-0.54;100.00
8523;BME280;4299;42.202;24.736;2023-02-17T00:36:14;100616.22;;;-0.49;100.00
8523;BME280;4299;42.202;24.736;2023-02-17T00:38:42;100611.09;;;-0.36;100.00
8523;BME280;4299;42.202;24.736;2023-02-17T00:41:11;100594.72;;;-0.16;100.00
8523;BME280;4299;42.202;24.736;2023-02-17T00:43:37;100594.69;;;-0.19;100.00
8523;BME280;4299;42.202;24.736;2023-02-17T00:46:04;100593.84;;;-0.13;100.00
8523;BME280;4299;42.202;24.736;2023-02-17T00:48:31;100588.63;;;-0.13;100.00
8523;BME280;4299;42.202;24.736;2023-02-17T00:50:58;100581.72;;;-0.05;100.00
8523;BME280;4299;42.202;24.736;2023-02-17T00:53:25;100586.09;;;0.00;100.00
8523;BME280;4299;42.202;24.736;2023-02-17T00:55:51;100584.28;;;-0.14;100.00
8523;BME280;4299;42.202;24.736;2023-02-17T00:58:19;100590.22;;;-0.43;100.00
8523;BME280;4299;42.202;24.736;2023-02-17T01:00:46;100590.06;;;-0.65;100.00
8523;BME280;4299;42.202;24.736;2023-02-17T01:03:13;100589.84;;;-0.94;100.00
8523;BME280;4299;42.202;24.736;2023-02-17T01:05:41;100589.69;;;-1.19;100.00
8523;BME280;4299;42.202;24.736;2023-02-17T01:08:10;100586.81;;;-1.47;100.00
8523;BME280;4299;42.202;24.736;2023-02-17T01:10:40;100585.00;;;-1.53;100.00
8523;BME280;4299;42.202;24.736;2023-02-17T01:13:07;100587.56;;;-1.56;100.00
8523;BME280;4299;42.202;24.736;2023-02-17T01:15:38;100582.31;;;-1.62;100.00
8523;BME280;4299;42.202;24.736;2023-02-17T01:18:04;100583.06;;;-1.72;100.00
8523;BME280;4299;42.202;24.736;2023-02-17T01:20:33;100574.38;;;-1.74;100.00
8523;BME280;4299;42.202;24.736;2023-02-17T01:23:00;100571.75;;;-1.77;100.00
8523;BME280;4299;42.202;24.736;2023-02-17T01:25:27;100569.94;;;-1.84;100.00
8523;BME280;4299;42.202;24.736;2023-02-17T01:27:54;100561.22;;;-1.89;100.00
8523;BME280;4299;42.202;24.736;2023-02-17T01:30:21;100557.69;;;-1.98;100.00
8523;BME280;4299;42.202;24.736;2023-02-17T01:32:49;100548.91;;;-2.06;100.00
8523;BME280;4299;42.202;24.736;2023-02-17T01:35:15;100559.19;;;-2.15;100.00
8523;BME280;4299;42.202;24.736;2023-02-17T01:37:42;100555.69;;;-2.20;100.00
8523;BME280;4299;42.202;24.736;2023-02-17T01:40:11;100542.66;;;-2.21;100.00
8523;BME280;4299;42.202;24.736;2023-02-17T01:42:38;100540.94;;;-2.21;100.00
8523;BME280;4299;42.202;24.736;2023-02-17T01:45:31;100535.75;;;-2.21;100.00
8523;BME280;4299;42.202;24.736;2023-02-17T01:48:02;100538.19;;;-2.33;100.00
8523;BME280;4299;42.202;24.736;2023-02-17T01:50:35;100540.69;;;-2.41;100.00
8523;BME280;4299;42.202;24.736;2023-02-17T01:53:04;100534.66;;;-2.38;100.00
8523;BME280;4299;42.202;24.736;2023-02-17T01:55:33;100527.03;;;-2.27;100.00
8523;BME280;4299;42.202;24.736;2023-02-17T01:58:01;100529.72;;;-2.17;100.00
8523;BME280;4299;42.202;24.736;2023-02-17T02:00:31;100531.41;;;-2.19;100.00
8523;BME280;4299;42.202;24.736;2023-02-17T02:03:00;100524.66;;;-2.08;100.00
8523;BME280;4299;42.202;24.736;2023-02-17T02:05:29;100516.88;;;-2.03;100.00
8523;BME280;4299;42.202;24.736;2023-02-17T02:07:56;100528.16;;;-2.03;100.00
8523;BME280;4299;42.202;24.736;2023-02-17T02:10:23;100517.78;;;-2.01;100.00
8523;BME280;4299;42.202;24.736;2023-02-17T02:12:50;100513.59;;;-1.90;100.00
8523;BME280;4299;42.202;24.736;2023-02-17T02:15:19;100514.53;;;-1.83;100.00
8523;BME280;4299;42.202;24.736;2023-02-17T02:18:01;100517.19;;;-1.77;100.00
8523;BME280;4299;42.202;24.736;2023-02-17T02:24:00;100501.53;;;-1.80;100.00
8523;BME280;4299;42.202;24.736;2023-02-17T02:26:48;100498.88;;;-1.86;100.00
8523;BME280;4299;42.202;24.736;2023-02-17T02:29:45;100500.69;;;-1.79;100.00
8523;BME280;4299;42.202;24.736;2023-02-17T02:32:26;100507.63;;;-1.78;100.00
8523;BME280;4299;42.202;24.736;2023-02-17T02:35:03;100509.34;;;-1.80;100.00
8523;BME280;4299;42.202;24.736;2023-02-17T02:37:34;100513.72;;;-1.75;100.00
8523;BME280;4299;42.202;24.736;2023-02-17T02:40:05;100521.53;;;-1.76;100.00
8523;BME280;4299;42.202;24.736;2023-02-17T02:42:33;100514.59;;;-1.77;100.00
8523;BME280;4299;42.202;24.736;2023-02-17T02:45:04;100514.59;;;-1.77;100.00
8523;BME280;4299;42.202;24.736;2023-02-17T02:47:46;100516.41;;;-1.67;100.00
8523;BME280;4299;42.202;24.736;2023-02-17T02:50:16;100504.28;;;-1.65;100.00
8523;BME280;4299;42.202;24.736;2023-02-17T02:52:52;100512.94;;;-1.69;100.00
8523;BME280;4299;42.202;24.736;2023-02-17T02:55:26;100504.28;;;-1.65;100.00
8523;BME280;4299;42.202;24.736;2023-02-17T02:58:02;100512.06;;;-1.70;100.00
8523;BME280;4299;42.202;24.736;2023-02-17T03:00:35;100513.81;;;-1.69;100.00
8523;BME280;4299;42.202;24.736;2023-02-17T03:03:09;100515.38;;;-1.84;100.00
8523;BME280;4299;42.202;24.736;2023-02-17T03:05:46;100511.84;;;-1.88;100.00
8523;BME280;4299;42.202;24.736;2023-02-17T03:08:21;100500.66;;;-1.82;100.00
8523;BME280;4299;42.202;24.736;2023-02-17T03:10:52;100502.41;;;-1.81;100.00
8523;BME280;4299;42.202;24.736;2023-02-17T03:13:20;100505.78;;;-1.91;100.00
8523;BME280;4299;42.202;24.736;2023-02-17T03:15:47;100503.09;;;-1.96;100.00
8523;BME280;4299;42.202;24.736;2023-02-17T03:18:16;100497.03;;;-2.00;100.00
8523;BME280;4299;42.202;24.736;2023-02-17T03:20:46;100506.59;;;-1.96;100.00
8523;BME280;4299;42.202;24.736;2023-02-17T03:23:14;100496.16;;;-1.97;100.00
8523;BME280;4299;42.202;24.736;2023-02-17T03:25:41;100494.38;;;-2.03;100.00
8523;BME280;4299;42.202;24.736;2023-02-17T03:28:09;100503.00;;;-2.07;100.00
8523;BME280;4299;42.202;24.736;2023-02-17T03:30:36;100513.22;;;-2.22;100.00
8523;BME280;4299;42.202;24.736;2023-02-17T03:33:03;100518.16;;;-2.43;100.00
8523;BME280;4299;42.202;24.736;2023-02-17T03:35:31;100518.97;;;-2.47;100.00
8523;BME280;4299;42.202;24.736;2023-02-17T03:37:58;100519.75;;;-2.53;100.00
8523;BME280;4299;42.202;24.736;2023-02-17T03:40:24;100523.16;;;-2.58;100.00
8523;BME280;4299;42.202;24.736;2023-02-17T03:42:51;100518.88;;;-2.53;100.00
8523;BME280;4299;42.202;24.736;2023-02-17T03:45:18;100514.53;;;-2.54;100.00
8523;BME280;4299;42.202;24.736;2023-02-17T03:47:44;100508.50;;;-2.53;100.00
8523;BME280;4299;42.202;24.736;2023-02-17T03:50:11;100509.44;;;-2.47;100.00
8523;BME280;4299;42.202;24.736;2023-02-17T03:52:39;100519.88;;;-2.44;100.00
8523;BME280;4299;42.202;24.736;2023-02-17T03:55:06;100522.56;;;-2.36;100.00
8523;BME280;4299;42.202;24.736;2023-02-17T03:57:33;100506.13;;;-2.37;100.00
8523;BME280;4299;42.202;24.736;2023-02-17T04:00:00;100505.31;;;-2.34;100.00
8523;BME280;4299;42.202;24.736;2023-02-17T04:02:26;100501.81;;;-2.33;100.00
8523;BME280;4299;42.202;24.736;2023-02-17T04:04:53;100502.72;;;-2.31;100.00
8523;BME280;4299;42.202;24.736;2023-02-17T04:07:20;100508.63;;;-2.44;100.00
8523;BME280;4299;42.202;24.736;2023-02-17T04:09:48;100503.56;;;-2.35;100.00
8523;BME280;4299;42.202;24.736;2023-02-17T04:12:15;100514.00;;;-2.29;100.00
8523;BME280;4299;42.202;24.736;2023-02-17T04:14:41;100514.00;;;-2.29;100.00
8523;BME280;4299;42.202;24.736;2023-02-17T04:17:08;100507.06;;;-2.30;100.00
8523;BME280;4299;42.202;24.736;2023-02-17T04:19:35;100508.84;;;-2.26;100.00
8523;BME280;4299;42.202;24.736;2023-02-17T04:22:01;100491.59;;;-2.21;100.00
8523;BME280;4299;42.202;24.736;2023-02-17T04:24:29;100495.13;;;-2.16;100.00
8523;BME280;4299;42.202;24.736;2023-02-17T04:26:57;100484.78;;;-2.13;100.00
8523;BME280;4299;42.202;24.736;2023-02-17T04:29:23;100516.66;;;-2.24;100.00
8523;BME280;4299;42.202;24.736;2023-02-17T04:31:50;100517.31;;;-2.42;100.00
8523;BME280;4299;42.202;24.736;2023-02-17T04:34:17;100514.00;;;-2.29;100.00
8523;BME280;4299;42.202;24.736;2023-02-17T04:36:43;100502.75;;;-2.29;100.00
8523;BME280;4299;42.202;24.736;2023-02-17T04:39:10;100495.84;;;-2.29;100.00
8523;BME280;4299;42.202;24.736;2023-02-17T04:41:37;100489.97;;;-2.13;100.00
8523;BME280;4299;42.202;24.736;2023-02-17T04:44:05;100484.94;;;-1.94;100.00
8523;BME280;4299;42.202;24.736;2023-02-17T04:46:31;100492.78;;;-1.91;100.00
8523;BME280;4299;42.202;24.736;2023-02-17T04:48:58;100486.66;;;-1.97;100.00
8523;BME280;4299;42.202;24.736;2023-02-17T04:51:25;100483.19;;;-1.99;100.00
8523;BME280;4299;42.202;24.736;2023-02-17T04:53:51;100490.03;;;-2.04;100.00
8523;BME280;4299;42.202;24.736;2023-02-17T04:56:18;100495.16;;;-2.10;100.00
8523;BME280;4299;42.202;24.736;2023-02-17T04:58:45;100493.34;;;-2.20;100.00
8523;BME280;4299;42.202;24.736;2023-02-17T05:01:13;100484.63;;;-2.25;100.00
8523;BME280;4299;42.202;24.736;2023-02-17T05:03:40;100500.09;;;-2.36;100.00
8523;BME280;4299;42.202;24.736;2023-02-17T05:06:07;100499.16;;;-2.42;100.00
8523;BME280;4299;42.202;24.736;2023-02-17T05:08:33;100488.66;;;-2.48;100.00
8523;BME280;4299;42.202;24.736;2023-02-17T05:11:00;100486.22;;;-2.36;100.00
8523;BME280;4299;42.202;24.736;2023-02-17T05:13:27;100474.22;;;-2.28;100.00
8523;BME280;4299;42.202;24.736;2023-02-17T05:15:53;100485.50;;;-2.23;100.00
8523;BME280;4299;42.202;24.736;2023-02-17T05:18:21;100488.22;;;-2.14;100.00
8523;BME280;4299;42.202;24.736;2023-02-17T05:20:48;100491.69;;;-2.12;100.00
8523;BME280;4299;42.202;24.736;2023-02-17T05:23:15;100481.28;;;-2.12;100.00
8523;BME280;4299;42.202;24.736;2023-02-17T05:25:41;100490.03;;;-2.07;100.00
8523;BME280;4299;42.202;24.736;2023-02-17T05:28:08;100496.13;;;-2.02;100.00
8523;BME280;4299;42.202;24.736;2023-02-17T05:30:35;100500.50;;;-1.99;100.00
8523;BME280;4299;42.202;24.736;2023-02-17T05:33:02;100497.13;;;-1.90;100.00
8523;BME280;4299;42.202;24.736;2023-02-17T05:35:30;100500.75;;;-1.73;100.00
8523;BME280;4299;42.202;24.736;2023-02-17T05:37:56;100500.81;;;-1.67;100.00
8523;BME280;4299;42.202;24.736;2023-02-17T05:40:23;100500.69;;;-1.79;100.00
8523;BME280;4299;42.202;24.736;2023-02-17T05:42:50;100501.50;;;-1.85;100.00
8523;BME280;4299;42.202;24.736;2023-02-17T05:45:16;100502.50;;;-1.72;100.00
8523;BME280;4299;42.202;24.736;2023-02-17T05:47:43;100496.59;;;-1.54;100.00
8523;BME280;4299;42.202;24.736;2023-02-17T05:50:10;100502.78;;;-1.40;100.00
8523;BME280;4299;42.202;24.736;2023-02-17T05:52:38;100507.25;;;-1.23;100.00
8523;BME280;4299;42.202;24.736;2023-02-17T05:55:05;100511.72;;;-1.06;100.00
8523;BME280;4299;42.202;24.736;2023-02-17T05:57:32;100506.59;;;-0.94;100.00
8523;BME280;4299;42.202;24.736;2023-02-17T05:59:59;100521.44;;;-0.81;100.00
8523;BME280;4299;42.202;24.736;2023-02-17T06:02:26;100522.44;;;-0.61;100.00
8523;BME280;4299;42.202;24.736;2023-02-17T06:04:53;100512.06;;;-0.49;100.00
8523;BME280;4299;42.202;24.736;2023-02-17T06:07:19;100523.44;;;-0.30;100.00
8523;BME280;4299;42.202;24.736;2023-02-17T06:09:48;100522.63;;;-0.18;100.00
8523;BME280;4299;42.202;24.736;2023-02-17T06:12:14;100526.16;;;-0.01;100.00
8523;BME280;4299;42.202;24.736;2023-02-17T06:14:41;100524.44;;;0.10;100.00
8523;BME280;4299;42.202;24.736;2023-02-17T06:17:08;100521.84;;;0.16;100.00
8523;BME280;4299;42.202;24.736;2023-02-17T06:19:34;100521.00;;;0.20;100.00
8523;BME280;4299;42.202;24.736;2023-02-17T06:22:01;100515.81;;;0.35;100.00
8523;BME280;4299;42.202;24.736;2023-02-17T06:24:28;100522.81;;;0.58;100.00
8523;BME280;4299;42.202;24.736;2023-02-17T06:26:56;100529.75;;;0.85;100.00
8523;BME280;4299;42.202;24.736;2023-02-17T06:29:23;100519.28;;;0.95;100.00
8523;BME280;4299;42.202;24.736;2023-02-17T06:31:49;100519.31;;;0.98;100.00
8523;BME280;4299;42.202;24.736;2023-02-17T06:34:16;100521.03;;;1.11;100.00
8523;BME280;4299;42.202;24.736;2023-02-17T06:36:43;100541.88;;;1.36;100.00
8523;BME280;4299;42.202;24.736;2023-02-17T06:39:10;100523.53;;;1.54;100.00
8523;BME280;4299;42.202;24.736;2023-02-17T06:41:37;100529.59;;;1.74;100.00
8523;BME280;4299;42.202;24.736;2023-02-17T06:44:05;100526.00;;;1.93;100.00
8523;BME280;4299;42.202;24.736;2023-02-17T06:46:32;100546.00;;;2.11;100.00
8523;BME280;4299;42.202;24.736;2023-02-17T06:48:59;100536.31;;;2.24;100.00
8523;BME280;4299;42.202;24.736;2023-02-17T06:51:26;100538.84;;;2.38;100.00
8523;BME280;4299;42.202;24.736;2023-02-17T06:53:53;100551.84;;;2.54;100.00
8523;BME280;4299;42.202;24.736;2023-02-17T06:56:20;100540.44;;;2.60;100.00
8523;BME280;4299;42.202;24.736;2023-02-17T06:58:47;100543.06;;;2.58;100.00
8523;BME280;4299;42.202;24.736;2023-02-17T07:01:17;100536.09;;;2.60;100.00
8523;BME280;4299;42.202;24.736;2023-02-17T07:03:44;100522.19;;;2.52;100.00
8523;BME280;4299;42.202;24.736;2023-02-17T07:06:11;100524.75;;;2.57;100.00
8523;BME280;4299;42.202;24.736;2023-02-17T07:08:38;100530.78;;;2.69;100.00
8523;BME280;4299;42.202;24.736;2023-02-17T07:11:33;100525.38;;;2.91;100.00
8523;BME280;4299;42.202;24.736;2023-02-17T07:13:59;100534.19;;;2.81;100.00
8523;BME280;4299;42.202;24.736;2023-02-17T07:16:28;100539.59;;;2.59;100.00
8523;BME280;4299;42.202;24.736;2023-02-17T07:18:55;100541.47;;;2.36;100.00
8523;BME280;4299;42.202;24.736;2023-02-17T07:21:21;100541.44;;;2.45;100.00
8523;BME280;4299;42.202;24.736;2023-02-17T07:23:48;100543.13;;;2.52;100.00
8523;BME280;4299;42.202;24.736;2023-02-17T07:26:15;100540.44;;;2.63;100.00
8523;BME280;4299;42.202;24.736;2023-02-17T07:31:50;100532.59;;;2.61;100.00
8523;BME280;4299;42.202;24.736;2023-02-17T07:34:17;100541.34;;;2.57;100.00
8523;BME280;4299;42.202;24.736;2023-02-17T07:36:47;100529.06;;;2.68;100.00
8523;BME280;4299;42.202;24.736;2023-02-17T07:39:14;100534.16;;;2.84;100.00
8523;BME280;4299;42.202;24.736;2023-02-17T07:41:41;100533.13;;;3.01;100.00
8523;BME280;4299;42.202;24.736;2023-02-17T07:44:08;100541.66;;;3.22;100.00
8523;BME280;4299;42.202;24.736;2023-02-17T07:46:35;100531.84;;;3.43;100.00
8523;BME280;4299;42.202;24.736;2023-02-17T07:49:05;100533.34;;;3.66;100.00
8523;BME280;4299;42.202;24.736;2023-02-17T07:51:32;100533.25;;;3.75;100.00
8523;BME280;4299;42.202;24.736;2023-02-17T07:53:59;100544.44;;;3.89;100.00
8523;BME280;4299;42.202;24.736;2023-02-17T07:56:26;100541.72;;;3.98;100.00
8523;BME280;4299;42.202;24.736;2023-02-17T07:58:54;100538.09;;;4.08;100.00
8523;BME280;4299;42.202;24.736;2023-02-17T08:01:22;100541.41;;;4.22;100.00
8523;BME280;4299;42.202;24.736;2023-02-17T08:03:50;100535.97;;;4.35;100.00
8523;BME280;4299;42.202;24.736;2023-02-17T08:06:20;100544.44;;;4.55;100.00
8523;BME280;4299;42.202;24.736;2023-02-17T08:08:47;100547.56;;;4.78;100.00
8523;BME280;4299;42.202;24.736;2023-02-17T08:11:31;100552.44;;;5.02;100.00
8523;BME280;4299;42.202;24.736;2023-02-17T08:14:16;100551.94;;;5.33;100.00
8523;BME280;4299;42.202;24.736;2023-02-17T08:16:45;100551.63;;;5.48;100.00
8523;BME280;4299;42.202;24.736;2023-02-17T08:19:12;100551.34;;;5.63;100.00
8523;BME280;4299;42.202;24.736;2023-02-17T08:21:40;100554.50;;;5.82;100.00
8523;BME280;4299;42.202;24.736;2023-02-17T08:24:07;100550.66;;;6.00;100.00
8523;BME280;4299;42.202;24.736;2023-02-17T08:26:34;100550.19;;;6.21;100.00
8523;BME280;4299;42.202;24.736;2023-02-17T08:29:00;100544.34;;;6.48;100.00
8523;BME280;4299;42.202;24.736;2023-02-17T08:31:29;100535.66;;;6.82;98.87
8523;BME280;4299;42.202;24.736;2023-02-17T08:33:56;100541.88;;;7.15;95.38
8523;BME280;4299;42.202;24.736;2023-02-17T08:36:23;100536.50;;;7.52;92.55
8523;BME280;4299;42.202;24.736;2023-02-17T08:38:52;100548.53;;;7.93;88.58
8523;BME280;4299;42.202;24.736;2023-02-17T08:41:25;100543.94;;;8.32;83.76
8523;BME280;4299;42.202;24.736;2023-02-17T08:43:53;100549.00;;;8.67;78.02
8523;BME280;4299;42.202;24.736;2023-02-17T08:46:20;100555.22;;;8.92;74.45
8523;BME280;4299;42.202;24.736;2023-02-17T08:48:47;100550.94;;;9.15;70.28
8523;BME280;4299;42.202;24.736;2023-02-17T08:51:15;100557.03;;;9.43;68.23
8523;BME280;4299;42.202;24.736;2023-02-17T08:53:43;100549.06;;;9.69;63.90
8523;BME280;4299;42.202;24.736;2023-02-17T08:56:12;100558.56;;;10.00;61.94
8523;BME280;4299;42.202;24.736;2023-02-17T08:58:39;100558.66;;;10.22;59.08
8523;BME280;4299;42.202;24.736;2023-02-17T09:01:06;100564.00;;;10.43;57.54
8523;BME280;4299;42.202;24.736;2023-02-17T09:03:33;100561.56;;;10.61;55.69
8523;BME280;4299;42.202;24.736;2023-02-17T09:06:00;100561.09;;;10.73;54.65
8523;BME280;4299;42.202;24.736;2023-02-17T09:08:26;100546.16;;;10.92;54.38
8523;BME280;4299;42.202;24.736;2023-02-17T09:10:53;100543.53;;;11.12;53.42
8523;BME280;4299;42.202;24.736;2023-02-17T09:13:21;100554.97;;;11.35;53.35
8523;BME280;4299;42.202;24.736;2023-02-17T09:15:48;100539.88;;;11.57;52.82
8523;BME280;4299;42.202;24.736;2023-02-17T09:18:18;100535.16;;;11.84;51.09
8523;BME280;4299;42.202;24.736;2023-02-17T09:20:45;100527.75;;;12.11;50.41
8523;BME280;4299;42.202;24.736;2023-02-17T09:23:11;100530.13;;;12.35;50.03
8523;BME280;4299;42.202;24.736;2023-02-17T09:25:38;100534.16;;;12.63;44.39
8523;BME280;4299;42.202;24.736;2023-02-17T09:28:05;100498.44;;;13.21;41.78
8523;BME280;4299;42.202;24.736;2023-02-17T09:30:33;100490.84;;;13.81;39.35
8523;BME280;4299;42.202;24.736;2023-02-17T09:33:00;100489.91;;;14.15;39.41
8523;BME280;4299;42.202;24.736;2023-02-17T09:35:29;100493.75;;;14.43;37.71
8523;BME280;4299;42.202;24.736;2023-02-17T09:37:57;100484.09;;;14.56;36.74
8523;BME280;4299;42.202;24.736;2023-02-17T09:40:29;100484.34;;;14.67;36.46
8523;BME280;4299;42.202;24.736;2023-02-17T09:42:58;100468.56;;;14.78;36.42
8523;BME280;4299;42.202;24.736;2023-02-17T09:45:28;100480.25;;;14.91;36.09
8523;BME280;4299;42.202;24.736;2023-02-17T09:48:02;100468.50;;;15.09;35.57
8523;BME280;4299;42.202;24.736;2023-02-17T09:50:34;100480.00;;;15.26;34.70
8523;BME280;4299;42.202;24.736;2023-02-17T09:53:09;100472.03;;;15.40;35.30
8523;BME280;4299;42.202;24.736;2023-02-17T09:55:40;100468.22;;;15.44;34.03
8523;BME280;4299;42.202;24.736;2023-02-17T09:58:11;100466.31;;;15.46;34.79
8523;BME280;4299;42.202;24.736;2023-02-17T10:00:41;100458.88;;;15.51;33.15
8523;BME280;4299;42.202;24.736;2023-02-17T10:03:15;100450.75;;;15.52;34.09
8523;BME280;4299;42.202;24.736;2023-02-17T10:05:46;100449.75;;;15.69;34.24
8523;BME280;4299;42.202;24.736;2023-02-17T10:08:18;100449.09;;;15.80;33.08
8523;BME280;4299;42.202;24.736;2023-02-17T10:10:49;100455.69;;;15.88;34.12
8523;BME280;4299;42.202;24.736;2023-02-17T10:13:17;100448.41;;;16.05;33.81
8523;BME280;4299;42.202;24.736;2023-02-17T10:15:47;100438.25;;;16.24;32.65
8523;BME280;4299;42.202;24.736;2023-02-17T10:18:18;100437.63;;;16.47;32.83
8523;BME280;4299;42.202;24.736;2023-02-17T10:20:47;100437.75;;;16.58;32.00
8523;BME280;4299;42.202;24.736;2023-02-17T10:23:18;100427.44;;;16.66;32.48
8523;BME280;4299;42.202;24.736;2023-02-17T10:25:57;100423.22;;;16.77;32.41
8523;BME280;4299;42.202;24.736;2023-02-17T10:28:37;100430.41;;;16.89;31.61
8523;BME280;4299;42.202;24.736;2023-02-17T10:31:12;100425.50;;;16.95;31.92
8523;BME280;4299;42.202;24.736;2023-02-17T10:33:47;100423.81;;;17.07;30.52
8523;BME280;4299;42.202;24.736;2023-02-17T10:36:24;100413.78;;;17.23;29.03
8523;BME280;4299;42.202;24.736;2023-02-17T10:38:52;100402.41;;;17.32;29.17
8523;BME280;4299;42.202;24.736;2023-02-17T10:41:20;100405.44;;;17.53;30.18
8523;BME280;4299;42.202;24.736;2023-02-17T10:43:48;100395.53;;;17.53;28.44
8523;BME280;4299;42.202;24.736;2023-02-17T10:46:16;100388.91;;;17.72;29.22
8523;BME280;4299;42.202;24.736;2023-02-17T10:48:46;100375.38;;;17.86;29.17
8523;BME280;4299;42.202;24.736;2023-02-17T10:51:14;100383.34;;;17.75;28.31
8523;BME280;4299;42.202;24.736;2023-02-17T10:53:41;100377.09;;;17.87;28.85
8523;BME280;4299;42.202;24.736;2023-02-17T10:56:10;100377.91;;;18.00;27.19
8523;BME280;4299;42.202;24.736;2023-02-17T10:58:40;100369.34;;;17.95;27.68
8523;BME280;4299;42.202;24.736;2023-02-17T11:01:12;100370.75;;;18.24;28.33
8523;BME280;4299;42.202;24.736;2023-02-17T11:03:39;100368.78;;;18.39;27.64
8523;BME280;4299;42.202;24.736;2023-02-17T11:06:15;100372.03;;;18.32;26.98
8523;BME280;4299;42.202;24.736;2023-02-17T11:08:43;100372.47;;;18.25;26.91
8523;BME280;4299;42.202;24.736;2023-02-17T11:11:13;100372.47;;;18.25;26.83
8523;BME280;4299;42.202;24.736;2023-02-17T11:13:42;100362.47;;;18.27;27.21
8523;BME280;4299;42.202;24.736;2023-02-17T11:16:18;100360.06;;;18.36;27.25
8523;BME280;4299;42.202;24.736;2023-02-17T11:18:46;100356.94;;;18.42;27.28
8523;BME280;4299;42.202;24.736;2023-02-17T11:21:14;100355.50;;;18.49;26.51
8523;BME280;4299;42.202;24.736;2023-02-17T11:23:46;100352.03;;;18.36;24.63
8523;BME280;4299;42.202;24.736;2023-02-17T11:26:17;100341.69;;;18.42;24.37
8523;BME280;4299;42.202;24.736;2023-02-17T11:28:44;100335.69;;;18.39;23.57
8523;BME280;4299;42.202;24.736;2023-02-17T11:31:21;100336.56;;;18.39;23.63
8523;BME280;4299;42.202;24.736;2023-02-17T11:33:48;100329.69;;;18.35;24.08
8523;BME280;4299;42.202;24.736;2023-02-17T11:36:22;100336.31;;;18.42;23.72
8523;BME280;4299;42.202;24.736;2023-02-17T11:38:50;100332.03;;;18.40;24.27
8523;BME280;4299;42.202;24.736;2023-02-17T11:41:16;100324.88;;;18.51;24.35
8523;BME280;4299;42.202;24.736;2023-02-17T11:43:52;100323.91;;;18.76;24.06
8523;BME280;4299;42.202;24.736;2023-02-17T11:46:23;100321.94;;;18.67;23.17
8523;BME280;4299;42.202;24.736;2023-02-17T11:49:26;100325.38;;;18.80;23.19
8523;BME280;4299;42.202;24.736;2023-02-17T11:52:11;100288.53;;;18.82;22.50
8523;BME280;4299;42.202;24.736;2023-02-17T11:54:50;100332.94;;;18.75;22.67
8523;BME280;4299;42.202;24.736;2023-02-17T11:57:32;100315.38;;;18.82;22.51
8523;BME280;4299;42.202;24.736;2023-02-17T12:00:13;100309.69;;;19.09;23.30
8523;BME280;4299;42.202;24.736;2023-02-17T12:02:43;100297.22;;;19.08;21.92
8523;BME280;4299;42.202;24.736;2023-02-17T12:05:21;100306.13;;;18.97;22.60
8523;BME280;4299;42.202;24.736;2023-02-17T12:08:12;100306.63;;;18.91;21.46
8523;BME280;4299;42.202;24.736;2023-02-17T12:10:54;100293.16;;;18.80;21.74
8523;BME280;4299;42.202;24.736;2023-02-17T12:13:34;100293.41;;;18.77;22.16
8523;BME280;4299;42.202;24.736;2023-02-17T12:16:27;100287.81;;;18.91;22.91
8523;BME280;4299;42.202;24.736;2023-02-17T12:19:03;100288.41;;;18.84;21.77
8523;BME280;4299;42.202;24.736;2023-02-17T12:21:43;100274.44;;;18.79;22.29
8523;BME280;4299;42.202;24.736;2023-02-17T12:24:26;100287.06;;;18.89;21.90
8523;BME280;4299;42.202;24.736;2023-02-17T12:27:04;100283.19;;;19.04;21.23
8523;BME280;4299;42.202;24.736;2023-02-17T12:29:46;100281.94;;;19.09;22.12
8523;BME280;4299;42.202;24.736;2023-02-17T12:32:29;100275.34;;;18.90;21.68
8523;BME280;4299;42.202;24.736;2023-02-17T12:35:03;100280.13;;;18.98;21.99
8523;BME280;4299;42.202;24.736;2023-02-17T12:37:46;100288.53;;;18.93;21.25
8523;BME280;4299;42.202;24.736;2023-02-17T12:40:18;100271.91;;;18.99;21.96
8523;BME280;4299;42.202;24.736;2023-02-17T12:42:54;100268.25;;;19.00;22.01
8523;BME280;4299;42.202;24.736;2023-02-17T12:45:36;100273.66;;;19.12;21.62
8523;BME280;4299;42.202;24.736;2023-02-17T12:48:10;100264.13;;;19.08;20.37
8523;BME280;4299;42.202;24.736;2023-02-17T12:50:51;100270.22;;;19.10;20.57
8523;BME280;4299;42.202;24.736;2023-02-17T12:53:24;100270.47;;;19.18;21.94
8523;BME280;4299;42.202;24.736;2023-02-17T12:55:56;100271.84;;;19.12;22.29
8523;BME280;4299;42.202;24.736;2023-02-17T12:58:26;100264.97;;;19.08;22.22
8523;BME280;4299;42.202;24.736;2023-02-17T13:00:58;100271.22;;;19.09;22.61
8523;BME280;4299;42.202;24.736;2023-02-17T13:03:28;100263.66;;;19.14;20.75
8523;BME280;4299;42.202;24.736;2023-02-17T13:05:58;100258.50;;;19.11;20.37
8523;BME280;4299;42.202;24.736;2023-02-17T13:08:29;100270.94;;;19.00;21.28
8523;BME280;4299;42.202;24.736;2023-02-17T13:11:03;100260.22;;;19.12;22.12
8523;BME280;4299;42.202;24.736;2023-02-17T13:13:31;100259.72;;;19.18;21.90
8523;BME280;4299;42.202;24.736;2023-02-17T13:16:04;100273.91;;;18.97;20.76